createdAt,value
2023-02-19T00:14:03.386Z,8.05
2023-02-19T00:35:49.035Z,7.98
2023-02-19T00:57:35.030Z,7.77
2023-02-19T01:19:21.267Z,7.53
2023-02-19T01:41:09.963Z,7.42
2023-02-19T02:02:59.375Z,7.34
2023-02-19T02:25:27.520Z,7.33
2023-02-19T02:47:33.468Z,7.36
2023-02-19T03:09:30.461Z,7.55
2023-02-19T03:31:20.784Z,7.59
2023-02-19T03:53:13.382Z,7.52
2023-02-19T04:15:05.086Z,7.45
2023-02-19T04:36:51.016Z,7.48
2023-02-19T04:58:36.980Z,7.47
2023-02-19T05:20:23.458Z,7.46
2023-02-19T05:42:09.938Z,7.54
2023-02-19T06:03:57.625Z,7.50
2023-02-19T06:25:43.915Z,7.40
2023-02-19T06:47:31.585Z,7.39
2023-02-19T07:09:17.435Z,7.37
2023-02-19T07:31:05.491Z,7.03
2023-02-19T07:52:51.183Z,6.43
2023-02-19T08:14:36.984Z,5.85
2023-02-19T08:36:22.978Z,5.41
2023-02-19T08:58:08.627Z,4.71
2023-02-19T09:19:54.391Z,4.71
2023-02-19T09:41:45.621Z,4.85
2023-02-19T10:03:35.927Z,5.78
2023-02-19T10:25:21.859Z,6.88
2023-02-19T10:47:08.383Z,7.08
2023-02-19T11:09:00.084Z,6.54
2023-02-19T11:30:47.055Z,7.40
2023-02-19T11:52:42.205Z,6.82
2023-02-19T12:15:05.374Z,6.75
2023-02-19T12:37:05.214Z,6.79
2023-02-19T12:58:54.442Z,7.13
2023-02-19T13:20:43.328Z,7.09
2023-02-19T13:42:33.235Z,6.86
2023-02-19T14:04:24.008Z,7.03
2023-02-19T14:26:10.095Z,6.81
2023-02-19T14:47:58.475Z,6.21
2023-02-19T15:09:46.695Z,5.57
2023-02-19T15:31:32.599Z,5.52
2023-02-19T15:53:22.859Z,5.57
2023-02-19T16:15:20.990Z,5.41
2023-02-19T16:37:34.991Z,5.11
2023-02-19T16:59:20.957Z,4.96
2023-02-19T17:21:15.555Z,4.91
2023-02-19T17:43:01.479Z,4.60
2023-02-19T18:04:47.223Z,4.42
2023-02-19T18:26:33.788Z,4.25
2023-02-19T18:48:19.660Z,4.15
2023-02-19T19:10:05.860Z,3.97
2023-02-19T19:31:52.298Z,3.65
2023-02-19T19:53:38.159Z,3.39
2023-02-19T20:15:25.925Z,3.27
2023-02-19T20:37:11.700Z,3.15
2023-02-19T20:58:57.331Z,2.89
2023-02-19T21:20:41.436Z,2.84
2023-02-19T21:42:27.105Z,2.70
2023-02-19T22:04:12.175Z,2.62
2023-02-19T22:25:58.136Z,2.44
2023-02-19T22:47:44.682Z,2.42
2023-02-19T23:09:31.305Z,2.35
2023-02-19T23:31:17.799Z,2.14
2023-02-19T23:53:03.639Z,2.04
